createdAt,value
2019-05-20T00:03:54.426Z,97165.97
2019-05-20T00:09:00.928Z,97170.64
2019-05-20T00:14:09.195Z,97168.30
2019-05-20T00:19:15.586Z,97170.44
2019-05-20T00:24:22.133Z,97173.41
2019-05-20T00:29:28.758Z,97172.50
2019-05-20T00:34:35.819Z,97163.10
2019-05-20T00:39:43.421Z,97161.20
2019-05-20T00:44:50.047Z,97173.50
2019-05-20T00:49:56.613Z,97172.63
2019-05-20T00:55:03.261Z,97167.19
2019-05-20T01:00:10.404Z,97155.05
2019-05-20T01:05:17.009Z,97150.37
2019-05-20T01:10:23.629Z,97148.55
2019-05-20T01:15:30.246Z,97158.31
2019-05-20T01:20:36.946Z,97164.00
2019-05-20T01:25:43.460Z,97154.61
2019-05-20T01:30:50.081Z,97144.50
2019-05-20T01:35:56.790Z,97137.69
2019-05-20T01:41:03.331Z,97141.12
2019-05-20T01:46:10.062Z,97146.19
2019-05-20T01:51:16.614Z,97137.86
2019-05-20T01:56:23.064Z,97136.56
2019-05-20T02:01:29.694Z,97133.69
2019-05-20T02:06:36.304Z,97130.12
2019-05-20T02:11:42.756Z,97125.34
2019-05-20T02:16:49.293Z,97111.37
2019-05-20T02:21:55.945Z,97113.14
2019-05-20T02:27:02.318Z,97103.64
2019-05-20T02:32:08.783Z,97093.17
2019-05-20T02:37:15.320Z,97085.52
2019-05-20T02:42:21.953Z,97086.85
2019-05-20T02:47:28.530Z,97082.86
2019-05-20T02:52:35.193Z,97079.56
2019-05-20T02:57:41.820Z,97077.27
2019-05-20T03:02:48.440Z,97077.38
2019-05-20T03:07:55.068Z,97065.67
2019-05-20T03:13:01.688Z,97069.97
2019-05-20T03:18:08.218Z,97061.58
2019-05-20T03:23:14.849Z,97052.43
2019-05-20T03:28:21.388Z,97050.70
2019-05-20T03:33:28.100Z,97052.95
2019-05-20T03:38:34.620Z,97049.66
2019-05-20T03:43:41.144Z,97056.21
2019-05-20T03:48:47.701Z,97051.22
2019-05-20T03:53:54.295Z,97051.84
2019-05-20T03:59:00.911Z,97042.06
2019-05-20T04:04:07.542Z,97051.77
2019-05-20T04:09:14.161Z,97061.08
2019-05-20T04:14:20.782Z,97063.77
2019-05-20T04:19:27.327Z,97079.93
2019-05-20T04:24:33.951Z,97089.63
2019-05-20T04:29:40.519Z,97083.94
2019-05-20T04:34:47.131Z,97077.08
2019-05-20T04:39:53.693Z,97078.12
2019-05-20T04:45:00.264Z,97076.88
2019-05-20T04:50:08.048Z,97082.97
2019-05-20T04:55:14.749Z,97085.83
2019-05-20T05:00:58.247Z,97077.92
2019-05-20T05:06:05.089Z,97080.98
2019-05-20T05:11:11.807Z,97086.01
2019-05-20T05:16:18.418Z,97089.04
2019-05-20T05:21:25.033Z,97080.66
2019-05-20T05:26:31.631Z,97087.75
2019-05-20T05:31:38.253Z,97085.97
2019-05-20T05:36:44.878Z,97092.52
2019-05-20T05:41:51.459Z,97086.24
2019-05-20T05:46:58.128Z,97076.58
2019-05-20T05:52:04.693Z,97082.66
2019-05-20T05:57:11.297Z,97079.16
2019-05-20T06:02:17.865Z,97080.80
2019-05-20T06:07:24.464Z,97077.66
2019-05-20T06:12:31.208Z,97065.91
2019-05-20T06:17:38.874Z,97071.41
2019-05-20T06:22:45.668Z,97060.39
2019-05-20T06:27:53.281Z,97068.13
2019-05-20T06:32:59.930Z,97074.95
2019-05-20T06:38:09.974Z,97076.19
2019-05-20T06:43:16.620Z,97081.25
2019-05-20T06:48:23.315Z,97087.86
2019-05-20T06:53:29.997Z,97086.16
2019-05-20T06:58:36.486Z,97077.59
2019-05-20T07:03:43.335Z,97072.17
2019-05-20T07:08:50.056Z,97062.66
2019-05-20T07:13:56.563Z,97056.80
2019-05-20T07:19:03.261Z,97058.27
2019-05-20T07:24:10.155Z,97051.50
2019-05-20T07:29:16.711Z,97056.31
2019-05-20T07:34:23.354Z,97057.59
2019-05-20T07:39:30.069Z,97062.90
2019-05-20T07:44:36.721Z,97065.45
2019-05-20T07:49:43.902Z,97079.47
2019-05-20T07:54:52.539Z,97075.67
2019-05-20T07:59:59.742Z,97077.28
2019-05-20T08:05:08.235Z,97073.38
2019-05-20T08:10:15.224Z,97065.02
2019-05-20T08:15:21.910Z,97065.78
2019-05-20T08:20:28.668Z,97068.75
2019-05-20T08:25:35.415Z,97075.66
2019-05-20T08:30:42.276Z,97076.41
2019-05-20T08:35:49.159Z,97066.73
2019-05-20T08:40:55.785Z,97061.52
2019-05-20T08:46:05.484Z,97069.98
2019-05-20T08:51:14.867Z,97077.81
2019-05-20T08:56:26.981Z,97069.80
2019-05-20T09:01:36.818Z,97068.31
2019-05-20T09:06:43.762Z,97067.89
2019-05-20T09:11:52.854Z,97067.41
2019-05-20T09:16:59.592Z,97071.28
2019-05-20T09:22:06.294Z,97077.11
2019-05-20T09:27:13.043Z,97082.70
2019-05-20T09:32:20.010Z,97070.88
2019-05-20T09:37:26.902Z,97073.55
2019-05-20T09:42:33.629Z,97070.48
2019-05-20T09:47:40.393Z,97068.27
2019-05-20T09:52:47.031Z,97081.97
2019-05-20T09:57:55.431Z,97075.22
2019-05-20T10:03:02.276Z,97082.85
2019-05-20T10:08:09.062Z,97071.78
2019-05-20T10:13:15.735Z,97068.42
2019-05-20T10:18:36.601Z,97072.59
2019-05-20T10:23:30.739Z,97073.89
2019-05-20T10:28:42.057Z,97072.46
2019-05-20T10:33:45.455Z,97074.16
2019-05-20T10:38:58.586Z,97075.44
2019-05-20T10:44:00.504Z,97061.11
2019-05-20T10:49:07.097Z,97057.89
2019-05-20T10:54:13.738Z,97056.55
2019-05-20T10:59:20.381Z,97053.34
2019-05-20T11:04:27.017Z,97047.56
2019-05-20T11:09:33.667Z,97046.48
2019-05-20T11:14:40.269Z,97048.92
2019-05-20T11:19:46.867Z,97043.86
2019-05-20T11:24:53.458Z,97053.72
2019-05-20T11:30:00.032Z,97056.48
2019-05-20T11:35:12.974Z,97068.50
2019-05-20T11:40:21.331Z,97062.28
2019-05-20T11:45:28.247Z,97067.63
2019-05-20T11:50:34.946Z,97071.55
2019-05-20T11:55:41.604Z,97078.34
2019-05-20T12:00:48.247Z,97068.59
2019-05-20T12:05:54.939Z,97070.93
2019-05-20T12:11:01.563Z,97077.34
2019-05-20T12:16:08.144Z,97074.83
2019-05-20T12:21:14.565Z,97080.38
2019-05-20T12:26:22.734Z,97075.28
2019-05-20T12:31:29.499Z,97076.73
2019-05-20T12:36:36.208Z,97084.63
2019-05-20T12:41:42.918Z,97086.09
2019-05-20T12:46:49.571Z,97081.36
2019-05-20T12:51:56.228Z,97080.88
2019-05-20T12:57:02.899Z,97071.98
2019-05-20T13:02:18.112Z,97060.98
2019-05-20T13:07:24.768Z,97037.59
2019-05-20T13:12:31.563Z,97026.27
2019-05-20T13:17:42.890Z,97030.86
2019-05-20T13:22:47.863Z,97015.95
2019-05-20T13:27:54.887Z,97015.18
2019-05-20T13:33:01.707Z,97001.36
2019-05-20T13:38:08.425Z,97001.95
2019-05-20T13:43:15.013Z,96994.30
2019-05-20T13:48:21.635Z,96977.55
2019-05-20T13:53:28.572Z,96966.53
2019-05-20T13:58:35.278Z,96972.50
2019-05-20T14:03:42.214Z,96960.84
2019-05-20T14:08:48.883Z,96943.52
2019-05-20T14:13:55.847Z,96942.48
2019-05-20T14:19:02.802Z,96932.89
2019-05-20T14:24:09.504Z,96945.50
2019-05-20T14:29:16.673Z,96928.11
2019-05-20T14:34:25.635Z,96934.53
2019-05-20T14:39:35.206Z,96934.39
2019-05-20T14:44:42.498Z,96945.67
2019-05-20T14:49:49.113Z,96936.30
2019-05-20T14:54:55.984Z,96943.30
2019-05-20T15:00:04.859Z,96940.20
2019-05-20T15:05:13.471Z,96941.34
2019-05-20T15:10:21.947Z,96940.69
2019-05-20T15:15:29.785Z,96939.86
2019-05-20T15:20:36.702Z,96946.41
2019-05-20T15:25:44.244Z,96947.05
2019-05-20T15:30:51.010Z,96945.98
2019-05-20T15:35:58.048Z,96949.19
2019-05-20T15:41:05.717Z,96953.39
2019-05-20T15:46:12.620Z,96957.91
2019-05-20T15:51:19.481Z,96965.00
2019-05-20T15:56:26.174Z,96967.14
2019-05-20T16:01:32.804Z,96956.38
2019-05-20T16:06:39.407Z,96959.34
2019-05-20T16:11:45.950Z,96954.78
2019-05-20T16:16:52.655Z,96954.25
2019-05-20T16:21:59.313Z,96958.30
2019-05-20T16:27:05.969Z,96952.11
2019-05-20T16:32:12.629Z,96943.78
2019-05-20T16:37:19.101Z,96959.28
2019-05-20T16:42:25.671Z,96952.62
2019-05-20T16:47:32.281Z,96953.92
2019-05-20T16:52:38.970Z,96952.55
2019-05-20T16:57:45.591Z,96957.06
2019-05-20T17:02:52.218Z,96968.34
2019-05-20T17:08:00.626Z,96968.04
2019-05-20T17:13:07.479Z,96962.13
2019-05-20T17:18:14.230Z,96961.30
2019-05-20T17:23:22.007Z,96970.11
2019-05-20T17:28:29.683Z,96960.17
2019-05-20T17:33:36.691Z,96959.08
2019-05-20T17:38:43.514Z,96956.12
2019-05-20T17:43:50.168Z,96953.72
2019-05-20T17:48:56.770Z,96948.08
2019-05-20T17:54:04.445Z,96944.03
2019-05-20T17:59:12.908Z,96954.51
2019-05-20T18:04:21.420Z,96953.67
2019-05-20T18:09:29.545Z,96956.33
2019-05-20T18:14:36.192Z,96956.05
2019-05-20T18:19:42.864Z,96941.30
2019-05-20T18:24:52.989Z,96951.78
2019-05-20T18:29:59.728Z,96951.13
2019-05-20T18:35:06.437Z,96956.15
2019-05-20T18:40:15.101Z,96951.84
2019-05-20T18:45:22.037Z,96948.08
2019-05-20T18:50:28.569Z,96946.70
2019-05-20T18:55:35.269Z,96944.02
2019-05-20T19:00:42.006Z,96938.38
2019-05-20T19:05:48.577Z,96940.78
2019-05-20T19:10:55.333Z,96943.98
2019-05-20T19:16:01.890Z,96943.39
2019-05-20T19:21:08.436Z,96940.36
2019-05-20T19:26:24.468Z,96940.36
2019-05-20T19:31:23.492Z,96947.83
2019-05-20T19:36:30.146Z,96944.05
2019-05-20T19:41:36.842Z,96946.08
2019-05-20T19:46:43.386Z,96960.95
2019-05-20T19:51:50.085Z,96961.78
2019-05-20T19:56:56.628Z,96961.15
2019-05-20T20:02:16.454Z,96957.18
2019-05-20T20:07:12.127Z,96959.48
2019-05-20T20:12:18.758Z,96969.22
2019-05-20T20:17:25.256Z,96973.53
2019-05-20T20:22:31.755Z,96972.81
2019-05-20T20:27:38.545Z,96969.91
2019-05-20T20:32:45.221Z,96971.89
2019-05-20T20:37:51.922Z,96980.20
2019-05-20T20:42:58.605Z,96976.12
2019-05-20T20:48:05.217Z,96963.86
2019-05-20T20:53:11.828Z,96962.98
2019-05-20T20:58:18.317Z,96956.46
2019-05-20T21:03:24.989Z,96968.91
2019-05-20T21:08:31.554Z,96972.49
2019-05-20T21:13:38.135Z,96972.48
2019-05-20T21:18:45.702Z,96965.41
2019-05-20T21:23:52.167Z,96961.52
2019-05-20T21:28:58.580Z,96956.86
2019-05-20T21:34:05.130Z,96969.13
2019-05-20T21:39:11.825Z,96977.56
2019-05-20T21:44:18.410Z,96975.75
2019-05-20T21:49:26.003Z,96986.70
2019-05-20T21:54:32.592Z,96997.29
2019-05-20T21:59:39.006Z,96993.50
2019-05-20T22:04:45.479Z,96991.95
2019-05-20T22:09:52.880Z,96999.17
2019-05-20T22:14:59.309Z,96987.25
2019-05-20T22:20:06.395Z,96981.98
2019-05-20T22:25:13.128Z,96989.67
2019-05-20T22:30:19.749Z,96993.73
2019-05-20T22:35:26.233Z,96987.05
2019-05-20T22:40:32.699Z,96988.30
2019-05-20T22:45:39.377Z,96984.48
2019-05-20T22:50:48.751Z,96983.88
2019-05-20T22:55:54.132Z,96991.16
2019-05-20T23:01:00.765Z,97000.22
2019-05-20T23:06:07.379Z,96996.88
2019-05-20T23:11:13.944Z,97002.66
2019-05-20T23:16:20.547Z,96998.75
2019-05-20T23:21:27.007Z,96979.50
2019-05-20T23:26:33.621Z,96980.42
2019-05-20T23:31:40.355Z,96963.91
2019-05-20T23:36:46.903Z,96951.79
2019-05-20T23:41:53.505Z,96953.45
2019-05-20T23:46:59.974Z,96948.56
2019-05-20T23:52:06.539Z,96949.81
2019-05-20T23:57:12.999Z,96961.98
